Time;durP1;ratioP1;P1;durP2;ratioP2;P2;SDS_P1;SDS_P2;PMS_P1;PMS_P2;Temp;Humidity;BMP_temperature;BMP_pressure;BME280_temperature;BME280_humidity;BME280_pressure;Samples;Min_cycle;Max_cycle;Signal;HPM_P1;HPM_P2
2022/04/07 00:01:14;;;;;;;2.33;0.95;;;9.30;99.90;;;;;;5013640;28;20033;-82
2022/04/07 00:03:40;;;;;;;1.92;1.00;;;9.20;99.90;;;;;;5004812;28;20061;-83
2022/04/07 00:06:09;;;;;;;1.60;0.80;;;9.30;99.90;;;;;;5015659;28;20037;-83
2022/04/07 00:08:44;;;;;;;1.80;1.05;;;9.30;99.90;;;;;;4995811;28;20097;-83
2022/04/07 00:11:11;;;;;;;2.47;1.33;;;9.20;99.90;;;;;;4980407;28;20057;-86
2022/04/07 00:13:37;;;;;;;2.58;0.85;;;9.20;99.90;;;;;;4977762;28;20027;-82
2022/04/07 00:16:03;;;;;;;2.80;1.10;;;9.20;99.90;;;;;;5004790;28;20053;-84
2022/04/07 00:18:29;;;;;;;1.67;0.75;;;9.20;99.90;;;;;;5000905;28;20056;-85
2022/04/07 00:20:54;;;;;;;2.28;1.13;;;9.20;99.90;;;;;;4980659;28;20038;-85
2022/04/07 00:23:21;;;;;;;2.25;1.33;;;9.20;99.90;;;;;;5005883;28;20025;-85
2022/04/07 00:25:47;;;;;;;1.65;1.00;;;9.20;99.90;;;;;;5002078;28;20034;-85
2022/04/07 00:28:13;;;;;;;2.85;0.80;;;9.20;99.90;;;;;;4989503;28;20491;-81
2022/04/07 00:30:39;;;;;;;1.60;0.77;;;9.20;99.90;;;;;;5014305;28;20041;-85
2022/04/07 00:33:06;;;;;;;3.28;1.00;;;9.20;99.90;;;;;;5018715;28;20040;-85
2022/04/07 00:35:31;;;;;;;2.38;0.90;;;9.20;99.90;;;;;;5003606;28;20033;-86
2022/04/07 00:37:57;;;;;;;1.35;0.80;;;9.10;99.90;;;;;;5023106;28;20034;-85
2022/04/07 00:40:23;;;;;;;2.05;0.80;;;9.10;99.90;;;;;;5015970;28;20120;-87
2022/04/07 00:42:50;;;;;;;2.45;0.80;;;9.10;99.90;;;;;;5010516;28;20037;-84
2022/04/07 00:45:19;;;;;;;2.47;0.90;;;9.10;99.90;;;;;;5011076;28;20034;-86
2022/04/07 00:47:45;;;;;;;2.70;0.60;;;9.10;99.90;;;;;;4994390;28;20030;-85
2022/04/07 00:50:14;;;;;;;4.90;1.10;;;9.10;99.90;;;;;;4995554;28;20042;-85
2022/04/07 00:52:52;;;;;;;3.88;0.70;;;9.10;99.90;;;;;;5005734;28;20042;-83
2022/04/07 00:55:19;;;;;;;2.97;0.80;;;9.10;99.90;;;;;;5007954;28;20057;-84
2022/04/07 00:57:46;;;;;;;1.63;0.50;;;9.10;99.90;;;;;;4993516;28;20054;-87
2022/04/07 01:00:13;;;;;;;2.30;0.60;;;9.10;99.90;;;;;;5017421;28;20033;-84
2022/04/07 01:02:39;;;;;;;4.03;0.60;;;9.00;99.90;;;;;;5003725;28;20447;-86
2022/04/07 01:05:08;;;;;;;3.80;0.60;;;9.10;99.90;;;;;;4990047;28;20139;-84
2022/04/07 01:07:37;;;;;;;4.25;0.70;;;9.00;99.90;;;;;;5002889;28;20084;-84
2022/04/07 01:10:08;;;;;;;4.00;0.50;;;9.10;99.90;;;;;;4999639;28;20572;-86
2022/04/07 01:12:34;;;;;;;6.20;0.50;;;9.20;99.90;;;;;;4973804;28;20041;-85
2022/04/07 01:15:03;;;;;;;3.58;0.65;;;9.20;99.90;;;;;;5008318;28;20462;-84
2022/04/07 01:17:29;;;;;;;3.20;0.45;;;9.20;99.90;;;;;;4989547;28;20038;-86
2022/04/07 01:19:55;;;;;;;2.85;0.40;;;9.30;99.90;;;;;;5002060;28;20042;-87
2022/04/07 01:22:22;;;;;;;3.70;1.15;;;9.20;99.90;;;;;;5019590;28;20033;-86
2022/04/07 01:24:48;;;;;;;4.22;0.40;;;9.10;99.90;;;;;;5007850;28;20042;-86
2022/04/07 01:27:16;;;;;;;1.60;0.30;;;9.00;99.90;;;;;;5020467;28;20026;-85
2022/04/07 01:29:42;;;;;;;4.60;0.57;;;9.00;99.90;;;;;;5007604;28;20120;-85
2022/04/07 01:32:19;;;;;;;3.38;0.47;;;9.00;99.90;;;;;;5014084;28;20104;-87
2022/04/07 01:34:45;;;;;;;3.40;0.50;;;8.90;99.90;;;;;;5018058;28;20130;-89
2022/04/07 01:37:12;;;;;;;3.08;0.50;;;8.90;99.90;;;;;;5024203;28;20088;-87
2022/04/07 01:39:41;;;;;;;4.03;0.52;;;8.80;99.90;;;;;;5006709;28;20040;-87
2022/04/07 01:42:14;;;;;;;3.63;0.47;;;8.80;99.90;;;;;;5007040;28;20030;-86
2022/04/07 01:44:44;;;;;;;2.95;0.50;;;8.80;99.90;;;;;;5007788;28;20027;-86
2022/04/07 01:47:12;;;;;;;3.08;0.35;;;8.70;99.90;;;;;;5005872;28;20034;-88
2022/04/07 01:49:40;;;;;;;2.22;0.40;;;8.70;99.90;;;;;;5000492;28;20042;-86
2022/04/07 01:52:07;;;;;;;3.20;0.40;;;8.70;99.90;;;;;;4988234;28;20093;-87
2022/04/07 01:54:34;;;;;;;4.10;0.35;;;8.70;99.90;;;;;;4985135;28;20450;-87
2022/04/07 01:57:01;;;;;;;1.85;0.20;;;8.70;99.90;;;;;;5006767;28;20038;-87
2022/04/07 01:59:28;;;;;;;2.88;0.30;;;8.60;99.90;;;;;;5023882;28;20029;-85
2022/04/07 02:01:53;;;;;;;2.63;0.40;;;8.60;99.90;;;;;;4986555;28;20486;-86
2022/04/07 02:04:19;;;;;;;5.85;0.68;;;8.70;99.90;;;;;;4986116;28;20076;-87
2022/04/07 02:06:45;;;;;;;5.07;0.80;;;8.70;99.90;;;;;;4989883;28;20400;-86
2022/04/07 02:09:10;;;;;;;3.97;0.50;;;8.70;99.90;;;;;;5008576;28;20025;-85
2022/04/07 02:11:36;;;;;;;3.58;0.43;;;8.70;99.90;;;;;;5008878;28;20124;-85
2022/04/07 02:14:02;;;;;;;1.98;0.40;;;8.70;99.90;;;;;;4987988;28;20030;-86
2022/04/07 02:16:30;;;;;;;4.25;0.50;;;8.70;99.90;;;;;;5016472;28;20223;-86
2022/04/07 02:18:55;;;;;;;2.65;0.50;;;8.70;99.90;;;;;;5013646;28;20117;-87
2022/04/07 02:21:21;;;;;;;3.78;0.60;;;8.70;99.90;;;;;;5015383;28;20507;-87
2022/04/07 02:23:46;;;;;;;3.58;0.50;;;8.70;99.90;;;;;;5016008;28;20036;-86
2022/04/07 02:26:13;;;;;;;2.55;0.60;;;8.70;99.90;;;;;;5006923;28;20033;-87
2022/04/07 02:28:40;;;;;;;6.35;0.50;;;8.70;99.90;;;;;;5000540;28;20049;-86
2022/04/07 02:31:06;;;;;;;6.95;0.70;;;8.60;99.90;;;;;;5005463;28;20191;-87
2022/04/07 02:33:34;;;;;;;2.72;0.50;;;8.60;99.90;;;;;;4987776;28;20033;-86
2022/04/07 02:36:01;;;;;;;3.78;0.40;;;8.60;99.90;;;;;;4988082;28;20473;-87
2022/04/07 02:38:26;;;;;;;3.33;1.00;;;8.60;99.90;;;;;;5005810;28;20394;-86
2022/04/07 02:40:52;;;;;;;4.18;0.80;;;8.60;99.90;;;;;;4989265;28;20037;-86
2022/04/07 02:43:18;;;;;;;4.25;0.50;;;8.70;99.90;;;;;;4997366;28;20042;-84
2022/04/07 02:45:43;;;;;;;5.90;0.63;;;8.70;99.90;;;;;;5007205;28;20478;-86
2022/04/07 02:48:09;;;;;;;4.97;0.40;;;8.60;99.90;;;;;;5006737;28;20030;-86
2022/04/07 02:50:34;;;;;;;3.88;0.50;;;8.70;99.90;;;;;;4991246;28;20045;-87
2022/04/07 02:53:00;;;;;;;6.57;0.70;;;8.70;99.90;;;;;;5002281;28;20046;-86
2022/04/07 02:55:27;;;;;;;4.32;0.60;;;8.70;99.90;;;;;;5007363;28;20096;-85
2022/04/07 02:57:53;;;;;;;5.70;0.70;;;8.80;99.90;;;;;;4995081;28;20026;-84
2022/04/07 03:00:18;;;;;;;5.88;0.50;;;8.80;99.90;;;;;;5007968;28;20034;-84
2022/04/07 03:02:44;;;;;;;4.90;0.65;;;8.80;99.90;;;;;;5003762;28;20022;-85
2022/04/07 03:05:11;;;;;;;7.03;0.70;;;8.90;99.90;;;;;;4995027;28;20112;-85
2022/04/07 03:07:36;;;;;;;5.50;1.30;;;9.00;99.90;;;;;;5012132;28;20041;-86
2022/04/07 03:10:02;;;;;;;4.45;0.50;;;9.00;99.90;;;;;;5004698;28;20030;-85
2022/04/07 03:12:28;;;;;;;6.47;0.60;;;9.00;99.90;;;;;;5002233;28;20033;-84
2022/04/07 03:14:54;;;;;;;3.85;0.52;;;9.00;99.90;;;;;;5006036;28;20418;-85
2022/04/07 03:17:19;;;;;;;6.28;0.77;;;9.00;99.90;;;;;;5022987;28;20040;-86
2022/04/07 03:19:45;;;;;;;2.97;0.75;;;9.00;99.90;;;;;;5005790;28;20697;-86
2022/04/07 03:22:12;;;;;;;7.90;1.13;;;9.00;99.90;;;;;;5023144;28;20036;-84
2022/04/07 03:24:38;;;;;;;6.95;0.80;;;9.00;99.90;;;;;;5016327;28;20014;-85
2022/04/07 03:27:07;;;;;;;5.70;0.50;;;9.00;99.90;;;;;;5012985;28;20041;-85
2022/04/07 03:29:34;;;;;;;7.50;0.60;;;9.00;99.90;;;;;;5016951;28;20034;-86
2022/04/07 03:32:00;;;;;;;5.18;0.50;;;9.00;99.90;;;;;;5014851;28;20034;-86
2022/04/07 03:34:25;;;;;;;5.90;0.50;;;8.90;99.90;;;;;;4988852;28;20030;-85
2022/04/07 03:36:51;;;;;;;5.30;1.10;;;9.00;99.90;;;;;;5009490;28;20109;-85
2022/04/07 03:39:17;;;;;;;4.30;0.40;;;9.10;99.90;;;;;;5018413;28;20034;-85
2022/04/07 03:41:42;;;;;;;3.17;0.40;;;9.10;99.90;;;;;;5015961;28;20037;-85
2022/04/07 03:44:09;;;;;;;5.95;0.60;;;9.10;99.90;;;;;;5006060;28;20033;-86
2022/04/07 03:46:36;;;;;;;6.30;0.63;;;9.10;99.90;;;;;;5006153;28;20050;-87
2022/04/07 03:49:02;;;;;;;3.80;0.70;;;9.10;99.90;;;;;;4980947;28;20036;-89
2022/04/07 03:51:28;;;;;;;4.07;0.57;;;9.00;99.90;;;;;;4978961;28;20049;-88
2022/04/07 03:53:56;;;;;;;3.60;0.60;;;9.00;99.90;;;;;;4983731;28;20022;-87
2022/04/07 03:56:23;;;;;;;7.85;0.93;;;9.00;99.90;;;;;;5010038;28;20026;-86
2022/04/07 03:58:49;;;;;;;4.10;0.60;;;9.10;99.90;;;;;;5005455;28;20038;-87
2022/04/07 04:01:15;;;;;;;7.53;0.50;;;9.10;99.90;;;;;;4995219;28;20038;-86
2022/04/07 04:03:40;;;;;;;6.80;0.60;;;9.10;99.90;;;;;;5021312;28;20048;-86
2022/04/07 04:06:06;;;;;;;8.30;0.50;;;9.10;99.90;;;;;;5006419;28;20041;-87
2022/04/07 04:08:31;;;;;;;8.55;1.15;;;9.10;99.90;;;;;;5004876;28;20061;-84
2022/04/07 04:10:57;;;;;;;7.75;0.60;;;9.10;99.90;;;;;;5003212;28;20491;-86
2022/04/07 04:13:24;;;;;;;6.30;0.55;;;9.10;99.90;;;;;;5004328;28;20110;-83
2022/04/07 04:15:50;;;;;;;8.38;0.70;;;9.10;99.90;;;;;;4994093;28;20117;-84
2022/04/07 04:18:15;;;;;;;4.38;0.40;;;9.20;99.90;;;;;;5018803;28;20437;-87
2022/04/07 04:20:41;;;;;;;6.28;0.93;;;9.20;99.90;;;;;;5008809;28;20474;-87
2022/04/07 04:23:06;;;;;;;7.60;0.57;;;9.20;99.90;;;;;;5025686;28;20034;-86
2022/04/07 04:25:32;;;;;;;5.47;0.68;;;9.20;99.90;;;;;;4993451;28;20124;-85
2022/04/07 04:27:57;;;;;;;5.43;0.50;;;9.20;99.90;;;;;;5008327;28;20038;-85
2022/04/07 04:30:24;;;;;;;7.95;0.50;;;9.20;99.90;;;;;;4991356;28;20155;-85
2022/04/07 04:32:52;;;;;;;4.85;0.50;;;9.20;99.90;;;;;;5008918;28;20417;-84
2022/04/07 04:35:19;;;;;;;2.75;0.45;;;9.20;99.90;;;;;;4992876;28;20026;-84
2022/04/07 04:37:45;;;;;;;4.63;0.40;;;9.20;99.90;;;;;;5008357;28;20096;-86
2022/04/07 04:40:11;;;;;;;4.10;0.40;;;9.20;99.90;;;;;;5018267;28;20038;-82
2022/04/07 04:42:40;;;;;;;5.22;1.02;;;9.20;99.90;;;;;;5009577;28;20121;-86
2022/04/07 04:45:07;;;;;;;7.43;0.70;;;9.20;99.90;;;;;;5007649;28;20113;-82
2022/04/07 04:47:33;;;;;;;5.07;0.60;;;9.30;99.90;;;;;;4985074;28;20030;-84
2022/04/07 04:49:59;;;;;;;4.85;0.45;;;9.20;99.90;;;;;;5007929;28;20031;-85
2022/04/07 04:52:24;;;;;;;3.78;0.43;;;9.20;99.90;;;;;;4991715;28;20132;-83
2022/04/07 04:54:50;;;;;;;2.50;0.40;;;9.20;99.90;;;;;;4988393;28;20032;-86
2022/04/07 04:57:15;;;;;;;4.05;0.50;;;9.20;99.90;;;;;;5006196;28;20030;-86
2022/04/07 04:59:41;;;;;;;2.83;0.45;;;9.20;99.90;;;;;;5008322;28;20041;-83
2022/04/07 05:02:06;;;;;;;3.80;0.40;;;9.20;99.90;;;;;;5014730;28;20025;-84
2022/04/07 05:04:32;;;;;;;6.40;0.50;;;9.20;99.90;;;;;;5017093;28;20109;-82
2022/04/07 05:06:58;;;;;;;6.03;0.57;;;9.30;99.90;;;;;;5002421;28;20418;-83
2022/04/07 05:09:24;;;;;;;3.50;0.40;;;9.30;99.90;;;;;;4992977;28;20027;-83
2022/04/07 05:11:49;;;;;;;3.03;0.40;;;9.30;99.90;;;;;;5009346;28;20533;-82
2022/04/07 05:14:15;;;;;;;6.97;0.70;;;9.30;99.90;;;;;;4992385;28;20061;-85
2022/04/07 05:16:40;;;;;;;4.38;0.50;;;9.40;99.90;;;;;;5002502;28;20022;-86
2022/04/07 05:19:06;;;;;;;2.50;0.43;;;9.30;99.90;;;;;;5015299;28;20029;-87
2022/04/07 05:21:31;;;;;;;2.38;0.40;;;9.30;99.90;;;;;;5007597;28;20026;-84
2022/04/07 05:23:57;;;;;;;3.67;0.30;;;9.30;99.90;;;;;;5002255;28;20042;-84
2022/04/07 05:26:22;;;;;;;3.75;0.52;;;9.40;99.90;;;;;;5005778;28;20037;-84
2022/04/07 05:28:48;;;;;;;3.25;0.40;;;9.40;99.90;;;;;;5005078;28;20038;-84
2022/04/07 05:31:13;;;;;;;4.18;0.40;;;9.30;99.90;;;;;;5007656;28;20439;-86
2022/04/07 05:33:39;;;;;;;2.75;0.40;;;9.40;99.90;;;;;;5007597;28;20475;-84
2022/04/07 05:36:05;;;;;;;3.15;0.45;;;9.40;99.90;;;;;;5011199;28;20410;-82
2022/04/07 05:38:30;;;;;;;2.40;0.30;;;9.30;99.90;;;;;;4986008;28;20034;-82
2022/04/07 05:40:56;;;;;;;1.80;0.30;;;9.30;99.90;;;;;;4998503;28;20505;-85
2022/04/07 05:43:22;;;;;;;3.00;0.40;;;9.30;99.90;;;;;;5014208;28;20033;-84
2022/04/07 05:45:49;;;;;;;4.47;0.60;;;9.30;99.90;;;;;;5006808;28;20502;-86
2022/04/07 05:48:14;;;;;;;2.65;0.43;;;9.30;99.90;;;;;;5007605;28;20061;-85
2022/04/07 05:50:40;;;;;;;2.35;0.50;;;9.20;99.90;;;;;;5002117;28;20061;-88
2022/04/07 05:53:06;;;;;;;4.80;0.63;;;9.20;99.90;;;;;;5003814;28;20046;-86
2022/04/07 05:55:34;;;;;;;1.50;0.40;;;9.20;99.90;;;;;;5003218;28;20048;-84
2022/04/07 05:58:14;;;;;;;;;;;;;;;;;;;;;
2022/04/07 06:00:40;;;;;;;5.05;0.45;;;9.20;99.90;;;;;;5008068;28;20026;-85
2022/04/07 06:03:06;;;;;;;1.95;0.30;;;9.20;99.90;;;;;;5010687;28;20041;-86
2022/04/07 06:05:32;;;;;;;1.48;0.60;;;9.20;99.90;;;;;;5010653;28;20077;-84
2022/04/07 06:08:01;;;;;;;0.93;0.40;;;9.20;99.90;;;;;;5004865;28;20092;-85
2022/04/07 06:10:27;;;;;;;1.30;0.30;;;9.20;99.90;;;;;;5002004;28;20034;-85
2022/04/07 06:12:53;;;;;;;1.17;0.40;;;9.20;99.90;;;;;;5008614;28;20025;-84
2022/04/07 06:15:19;;;;;;;1.13;0.40;;;9.20;99.90;;;;;;5007595;28;20084;-82
2022/04/07 06:17:45;;;;;;;3.15;0.80;;;9.20;99.90;;;;;;5004305;28;20034;-85
2022/04/07 06:20:11;;;;;;;1.60;0.60;;;9.10;99.90;;;;;;5005991;28;20048;-85
2022/04/07 06:22:38;;;;;;;3.47;1.45;;;9.10;99.90;;;;;;4987266;28;20096;-86
2022/04/07 06:25:05;;;;;;;3.47;1.30;;;9.10;99.90;;;;;;5004747;28;20025;-87
2022/04/07 06:27:38;;;;;;;3.00;2.00;;;9.10;99.90;;;;;;5005187;28;20520;-85
2022/04/07 06:30:05;;;;;;;3.58;2.08;;;9.10;99.90;;;;;;5006531;28;20110;-85
2022/04/07 06:32:31;;;;;;;2.90;2.22;;;9.00;99.90;;;;;;4987839;28;20915;-85
2022/04/07 06:34:57;;;;;;;6.10;2.72;;;9.00;99.90;;;;;;5016993;28;20026;-86
2022/04/07 06:37:22;;;;;;;4.65;2.47;;;9.00;99.90;;;;;;4988436;28;20438;-87
2022/04/07 06:39:48;;;;;;;3.17;1.70;;;9.00;99.90;;;;;;5008990;28;20438;-84
2022/04/07 06:42:14;;;;;;;5.00;1.63;;;9.00;99.90;;;;;;5005272;28;20423;-88
2022/04/07 06:44:39;;;;;;;1.67;0.90;;;9.00;99.90;;;;;;4987759;28;20034;-82
2022/04/07 06:47:05;;;;;;;2.13;0.80;;;9.00;99.90;;;;;;5022186;28;20029;-85
2022/04/07 06:49:30;;;;;;;3.40;0.70;;;9.00;99.90;;;;;;4988258;28;20038;-83
2022/04/07 06:51:56;;;;;;;3.72;0.80;;;9.00;99.90;;;;;;5011688;28;20049;-83
2022/04/07 06:54:21;;;;;;;2.35;0.70;;;9.00;99.90;;;;;;4996230;28;20038;-82
2022/04/07 06:56:47;;;;;;;3.13;0.55;;;9.00;99.90;;;;;;4984450;28;20033;-84
2022/04/07 06:59:13;;;;;;;2.83;0.50;;;8.90;99.90;;;;;;5017132;28;20029;-86
2022/04/07 07:01:38;;;;;;;2.67;0.43;;;8.90;99.90;;;;;;5005251;28;20041;-83
2022/04/07 07:04:04;;;;;;;3.20;0.50;;;8.90;99.90;;;;;;4990102;28;20045;-83
2022/04/07 07:06:31;;;;;;;2.95;0.40;;;8.90;99.90;;;;;;5002936;28;20128;-84
2022/04/07 07:08:57;;;;;;;5.28;0.47;;;9.00;99.90;;;;;;4992390;28;20026;-84
2022/04/07 07:11:22;;;;;;;3.08;0.40;;;9.00;99.90;;;;;;5006615;28;20049;-84
2022/04/07 07:13:48;;;;;;;2.63;0.43;;;9.00;99.90;;;;;;5007882;28;20075;-81
2022/04/07 07:16:13;;;;;;;2.63;0.40;;;9.00;99.90;;;;;;5016948;28;20038;-82
2022/04/07 07:18:42;;;;;;;2.97;0.60;;;9.10;99.90;;;;;;5004807;28;20397;-82
2022/04/07 07:21:08;;;;;;;2.60;0.80;;;9.10;99.90;;;;;;5002774;28;20034;-82
2022/04/07 07:23:33;;;;;;;2.75;0.60;;;9.00;99.90;;;;;;5003210;28;20497;-83
2022/04/07 07:25:59;;;;;;;2.85;0.80;;;9.00;99.90;;;;;;4995841;28;20034;-82
2022/04/07 07:28:24;;;;;;;2.38;0.40;;;9.00;99.90;;;;;;4981381;28;20038;-82
2022/04/07 07:30:50;;;;;;;4.25;0.50;;;9.10;99.90;;;;;;5019723;28;20030;-84
2022/04/07 07:33:17;;;;;;;1.05;0.20;;;9.00;99.90;;;;;;4989476;28;20383;-81
2022/04/07 07:35:45;;;;;;;1.00;0.00;;;7.10;99.90;;;;;;5004475;28;20033;-81
2022/04/07 07:38:12;;;;;;;0.93;0.10;;;6.00;99.90;;;;;;5001984;28;20129;-81
2022/04/07 07:40:38;;;;;;;1.42;0.10;;;5.70;99.90;;;;;;5004434;28;20116;-81
2022/04/07 07:43:04;;;;;;;1.02;0.00;;;5.70;99.90;;;;;;4998883;28;20148;-81
2022/04/07 07:45:32;;;;;;;0.65;0.00;;;5.70;99.90;;;;;;4972939;28;20124;-81
2022/04/07 07:47:57;;;;;;;0.55;0.00;;;5.70;99.90;;;;;;5014437;28;20096;-81
2022/04/07 07:50:23;;;;;;;0.75;0.03;;;5.70;99.90;;;;;;4984765;28;20427;-80
2022/04/07 07:52:50;;;;;;;1.35;0.08;;;5.70;99.90;;;;;;5018901;28;20045;-81
2022/04/07 07:55:15;;;;;;;1.45;0.00;;;5.70;99.90;;;;;;5025789;28;20115;-81
2022/04/07 07:57:41;;;;;;;1.10;0.00;;;5.80;99.90;;;;;;4991943;28;20116;-82
2022/04/07 08:00:09;;;;;;;0.98;0.10;;;5.80;99.90;;;;;;5017259;28;20107;-81
2022/04/07 08:02:36;;;;;;;1.00;0.10;;;5.80;99.90;;;;;;4980292;28;20040;-81
2022/04/07 08:05:02;;;;;;;1.58;0.10;;;5.90;99.90;;;;;;5023288;28;20041;-81
2022/04/07 08:07:28;;;;;;;0.80;0.10;;;5.90;99.90;;;;;;5022460;28;20045;-82
2022/04/07 08:09:57;;;;;;;1.38;0.10;;;5.80;99.90;;;;;;4990974;28;20026;-81
2022/04/07 08:12:24;;;;;;;1.88;0.20;;;5.70;99.90;;;;;;5009792;28;20080;-82
2022/04/07 08:14:49;;;;;;;2.63;0.20;;;5.70;99.90;;;;;;5006508;28;20125;-82
2022/04/07 08:17:15;;;;;;;1.33;0.10;;;5.70;99.90;;;;;;4984674;28;20462;-82
2022/04/07 08:19:41;;;;;;;1.48;0.20;;;5.80;99.90;;;;;;5005953;28;20045;-82
2022/04/07 08:22:07;;;;;;;2.60;0.20;;;5.70;99.90;;;;;;5007416;28;20037;-82
2022/04/07 08:24:34;;;;;;;4.68;0.20;;;5.70;99.90;;;;;;4988715;28;20029;-81
2022/04/07 08:27:00;;;;;;;2.10;0.10;;;5.70;99.90;;;;;;5010745;28;20036;-82
2022/04/07 08:29:26;;;;;;;1.48;0.10;;;5.70;99.90;;;;;;5003553;28;20037;-82
2022/04/07 08:31:52;;;;;;;1.30;0.10;;;5.70;99.90;;;;;;5024789;28;20042;-81
2022/04/07 08:34:19;;;;;;;3.45;0.20;;;5.70;99.90;;;;;;5009361;28;20040;-81
2022/04/07 08:36:44;;;;;;;2.20;0.10;;;5.80;99.90;;;;;;4986290;28;20087;-81
2022/04/07 08:39:10;;;;;;;0.73;0.10;;;5.90;99.90;;;;;;5024107;28;20030;-81
2022/04/07 08:41:39;;;;;;;1.73;0.10;;;5.90;99.90;;;;;;5019378;28;20028;-81
2022/04/07 08:44:05;;;;;;;1.52;0.22;;;6.10;99.90;;;;;;5022432;28;20428;-82
2022/04/07 08:46:32;;;;;;;1.08;0.20;;;6.20;99.90;;;;;;5007050;28;20040;-81
2022/04/07 08:49:00;;;;;;;1.63;0.20;;;6.60;99.90;;;;;;5000751;28;20057;-81
2022/04/07 08:51:28;;;;;;;0.88;0.10;;;6.80;99.90;;;;;;5000509;28;20049;-82
2022/04/07 08:53:54;;;;;;;1.55;0.20;;;7.00;99.90;;;;;;5021881;28;20449;-82
2022/04/07 08:56:20;;;;;;;1.42;0.10;;;6.80;99.90;;;;;;5007379;28;20371;-82
2022/04/07 08:58:45;;;;;;;2.30;0.20;;;6.80;99.90;;;;;;4990256;28;20083;-81
2022/04/07 09:01:11;;;;;;;0.52;0.10;;;6.90;99.90;;;;;;5013176;28;20022;-81
2022/04/07 09:03:37;;;;;;;1.50;0.20;;;7.30;99.90;;;;;;4979884;28;20053;-82
2022/04/07 09:06:03;;;;;;;1.52;0.20;;;7.80;99.90;;;;;;5012953;28;20029;-82
2022/04/07 09:08:36;;;;;;;3.00;0.22;;;8.00;99.90;;;;;;5011179;28;20304;-82
2022/04/07 09:11:05;;;;;;;1.75;0.20;;;8.10;99.90;;;;;;5003726;28;20033;-82
2022/04/07 09:13:39;;;;;;;4.30;0.30;;;8.40;99.90;;;;;;5000955;28;20030;-81
2022/04/07 09:16:13;;;;;;;2.83;0.20;;;8.90;99.90;;;;;;5000773;28;20033;-82
2022/04/07 09:18:49;;;;;;;2.00;0.20;;;9.20;99.90;;;;;;4999824;28;20052;-83
2022/04/07 09:21:27;;;;;;;1.52;0.20;;;9.20;99.90;;;;;;5002845;28;20025;-83
2022/04/07 09:23:57;;;;;;;1.02;0.20;;;8.90;99.90;;;;;;5003589;28;20029;-82
2022/04/07 09:26:24;;;;;;;2.10;0.63;;;9.10;99.90;;;;;;5018201;28;20024;-84
2022/04/07 09:28:55;;;;;;;1.58;0.20;;;8.90;99.90;;;;;;5019302;28;20052;-83
2022/04/07 09:31:22;;;;;;;1.90;0.20;;;9.00;99.90;;;;;;5017898;28;20476;-81
2022/04/07 09:33:56;;;;;;;2.95;0.40;;;9.20;99.90;;;;;;5022225;28;20029;-83
2022/04/07 09:36:23;;;;;;;1.25;0.10;;;9.40;99.90;;;;;;5002606;28;20045;-80
2022/04/07 09:38:55;;;;;;;1.48;0.20;;;9.60;99.90;;;;;;4986454;28;20053;-83
2022/04/07 09:41:23;;;;;;;2.75;0.28;;;9.50;99.90;;;;;;4983721;28;20030;-80
2022/04/07 09:44:01;;;;;;;2.28;0.40;;;9.40;99.90;;;;;;5001250;28;20284;-83
2022/04/07 09:46:32;;;;;;;3.17;0.20;;;9.30;99.90;;;;;;5019306;28;20034;-84
2022/04/07 09:49:04;;;;;;;2.40;0.25;;;9.20;99.90;;;;;;5018873;28;20032;-81
2022/04/07 09:51:36;;;;;;;3.08;0.35;;;9.30;99.90;;;;;;5000446;28;20033;-82
2022/04/07 09:54:03;;;;;;;3.17;0.20;;;9.30;99.90;;;;;;5017372;28;20017;-84
2022/04/07 09:56:29;;;;;;;4.05;0.32;;;9.40;99.90;;;;;;5000726;28;20104;-84
2022/04/07 09:58:55;;;;;;;5.53;0.40;;;9.80;99.90;;;;;;4985814;28;20167;-85
2022/04/07 10:01:22;;;;;;;4.95;0.30;;;9.70;99.90;;;;;;5002117;28;20038;-81
2022/04/07 10:03:52;;;;;;;4.15;0.30;;;9.80;99.90;;;;;;5018299;28;20036;-82
2022/04/07 10:06:20;;;;;;;2.65;0.20;;;10.00;99.90;;;;;;5017437;28;20037;-83
2022/04/07 10:08:49;;;;;;;3.47;0.20;;;10.10;99.90;;;;;;4999805;28;20108;-82
2022/04/07 10:11:17;;;;;;;1.83;0.30;;;10.10;99.90;;;;;;4998926;28;20709;-82
2022/04/07 10:13:46;;;;;;;3.17;0.15;;;9.90;99.90;;;;;;5001980;28;20065;-83
2022/04/07 10:16:15;;;;;;;4.47;0.20;;;9.90;99.90;;;;;;5004257;28;20496;-82
2022/04/07 10:18:51;;;;;;;2.22;0.20;;;10.50;99.90;;;;;;5000485;28;20144;-82
2022/04/07 10:21:55;;;;;;;4.07;0.20;;;10.60;99.90;;;;;;4985436;28;20087;-83
2022/04/07 10:25:01;;;;;;;2.30;0.10;;;10.60;99.90;;;;;;5017778;28;20029;-85
2022/04/07 10:27:30;;;;;;;3.15;0.20;;;10.50;99.90;;;;;;4926729;28;20035;-82
2022/04/07 10:30:14;;;;;;;3.42;0.30;;;10.40;99.90;;;;;;4965498;28;20031;-85
2022/04/07 10:32:56;;;;;;;3.10;0.40;;;10.20;99.90;;;;;;4964256;28;20038;-85
2022/04/07 10:35:30;;;;;;;1.75;0.20;;;10.20;99.90;;;;;;4946720;28;20054;-84
2022/04/07 10:37:56;;;;;;;3.65;0.20;;;10.40;99.90;;;;;;4966284;28;20399;-84
2022/04/07 10:40:39;;;;;;;3.40;0.20;;;10.70;99.90;;;;;;4947833;28;20113;-83
2022/04/07 10:43:06;;;;;;;2.33;0.20;;;10.70;99.90;;;;;;4964525;28;20118;-83
2022/04/07 10:45:39;;;;;;;4.18;0.20;;;11.20;99.90;;;;;;4964927;28;20042;-87
2022/04/07 10:48:32;;;;;;;4.68;0.32;;;11.40;99.90;;;;;;4948888;28;20047;-87
2022/04/07 10:51:07;;;;;;;5.15;0.20;;;11.50;99.90;;;;;;4944021;28;20046;-86
2022/04/07 10:54:02;;;;;;;3.85;0.30;;;11.60;99.90;;;;;;4945499;28;20090;-89
2022/04/07 10:56:32;;;;;;;6.35;0.30;;;11.90;99.90;;;;;;4944200;28;20503;-85
2022/04/07 10:59:17;;;;;;;5.60;0.40;;;11.80;99.90;;;;;;4942429;28;20034;-87
2022/04/07 11:01:42;;;;;;;5.72;0.38;;;12.00;99.90;;;;;;4973886;28;20508;-88
2022/04/07 11:04:17;;;;;;;3.63;0.60;;;11.90;99.90;;;;;;4995852;28;20451;-92
2022/04/07 11:07:05;;;;;;;5.97;0.77;;;11.90;99.90;;;;;;4995667;28;20037;-88
2022/04/07 11:09:53;;;;;;;7.40;0.30;;;11.60;99.90;;;;;;4996498;28;20061;-88
2022/04/07 11:12:28;;;;;;;5.72;0.32;;;11.40;99.90;;;;;;5000731;28;20430;-89
2022/04/07 11:15:29;;;;;;;5.53;0.60;;;11.00;99.90;;;;;;4993794;28;20029;-87
2022/04/07 11:18:02;;;;;;;9.38;0.73;;;11.20;99.90;;;;;;5012215;28;20079;-91
2022/04/07 11:20:28;;;;;;;6.85;0.38;;;11.30;99.90;;;;;;4993602;28;20478;-90
2022/04/07 11:23:09;;;;;;;4.78;0.60;;;10.80;99.90;;;;;;5013422;28;20037;-88
2022/04/07 11:25:35;;;;;;;;;;;10.70;99.90;;;;;;5012177;28;20025;-89
2022/04/07 11:28:24;;;;;;;11.48;0.68;;;10.60;99.90;;;;;;5010256;28;19921;-87
2022/04/07 11:30:50;;;;;;;7.55;0.60;;;10.60;99.90;;;;;;5011531;28;20049;-92
2022/04/07 11:33:25;;;;;;;9.48;0.60;;;10.30;99.90;;;;;;4996525;28;20116;-92
2022/04/07 11:36:00;;;;;;;7.47;0.63;;;10.20;99.90;;;;;;5012736;28;20030;-88
2022/04/07 11:38:26;;;;;;;8.43;0.60;;;10.00;99.90;;;;;;5013283;28;20037;-90
2022/04/07 11:40:59;;;;;;;5.30;0.40;;;10.10;99.90;;;;;;5013458;28;20032;-91
2022/04/07 11:43:25;;;;;;;8.18;0.65;;;10.20;99.90;;;;;;4995420;28;20033;-90
2022/04/07 11:45:52;;;;;;;7.43;0.60;;;10.40;99.90;;;;;;4973242;28;20028;-89
2022/04/07 11:48:18;;;;;;;6.80;0.50;;;10.30;99.90;;;;;;4995507;28;20038;-88
2022/04/07 11:50:44;;;;;;;6.40;0.60;;;10.30;99.90;;;;;;4996822;28;20069;-88
2022/04/07 11:53:10;;;;;;;9.98;0.90;;;10.30;99.90;;;;;;5002076;28;20813;-89
2022/04/07 11:55:36;;;;;;;6.50;0.80;;;10.10;99.90;;;;;;4994716;28;20030;-90
2022/04/07 11:58:01;;;;;;;6.57;0.40;;;10.20;99.90;;;;;;4997566;28;20350;-91
2022/04/07 12:00:31;;;;;;;6.90;0.40;;;10.00;99.90;;;;;;4977570;28;20561;-90
2022/04/07 12:03:03;;;;;;;7.55;0.50;;;9.90;99.90;;;;;;4977083;28;20057;-89
2022/04/07 12:05:30;;;;;;;9.45;0.70;;;10.10;99.90;;;;;;5011168;28;20060;-89
2022/04/07 12:08:11;;;;;;;8.80;0.50;;;10.10;99.90;;;;;;4982192;28;20109;-90
2022/04/07 12:10:41;;;;;;;7.90;0.50;;;10.20;99.90;;;;;;4996375;28;20162;-90
2022/04/07 12:13:08;;;;;;;7.25;0.50;;;10.00;99.90;;;;;;4994770;28;20054;-89
2022/04/07 12:15:37;;;;;;;5.45;0.80;;;10.20;99.90;;;;;;4979335;28;20045;-89
2022/04/07 12:18:06;;;;;;;6.70;0.50;;;10.20;99.90;;;;;;4999628;28;20029;-89
2022/04/07 12:20:33;;;;;;;9.82;0.60;;;10.20;99.90;;;;;;5000981;28;22130;-91
2022/04/07 12:23:10;;;;;;;7.53;0.45;;;10.20;99.90;;;;;;4989625;28;20171;-90
2022/04/07 12:25:41;;;;;;;6.15;0.50;;;10.30;99.90;;;;;;4977489;28;20036;-89
2022/04/07 12:28:20;;;;;;;6.88;0.60;;;10.40;99.90;;;;;;4993928;28;20045;-91
2022/04/07 12:30:48;;;;;;;6.00;0.40;;;10.50;99.90;;;;;;4993620;28;20050;-89
2022/04/07 12:33:46;;;;;;;5.13;0.40;;;10.50;99.90;;;;;;4997853;28;20044;-87
2022/04/07 12:36:14;;;;;;;5.95;0.63;;;10.50;99.90;;;;;;5012481;28;20041;-90
2022/04/07 12:38:40;;;;;;;6.00;0.70;;;10.40;99.90;;;;;;4997205;28;20347;-88
2022/04/07 12:41:12;;;;;;;10.35;0.77;;;10.20;99.90;;;;;;4987070;28;20037;-86
2022/04/07 12:43:50;;;;;;;4.32;0.40;;;10.20;99.90;;;;;;4986522;28;20091;-87
2022/04/07 12:46:18;;;;;;;5.93;0.32;;;10.10;99.90;;;;;;5007875;28;20037;-91
2022/04/07 12:49:03;;;;;;;8.95;0.57;;;10.10;99.90;;;;;;5000269;28;20034;-86
2022/04/07 12:51:29;;;;;;;4.25;0.40;;;9.90;99.90;;;;;;5002543;28;20237;-89
2022/04/07 12:54:12;;;;;;;10.07;0.60;;;9.90;99.90;;;;;;5018871;28;20083;-88
2022/04/07 12:56:43;;;;;;;5.78;0.50;;;10.00;99.90;;;;;;4994198;28;20047;-90
2022/04/07 12:59:11;;;;;;;2.78;0.32;;;10.20;99.90;;;;;;4982388;28;20030;-89
2022/04/07 13:01:39;;;;;;;6.25;1.25;;;10.30;99.90;;;;;;4998862;28;20060;-90